WZZ8329 EPWA-EPKK
Flight info
| Callsign | WZZ8329 |
|---|---|
| Flight time | N/A |
| Altitude | 22000 |
| Route | EVINA DCT KUKAM |
| Aircraft | A20N/M-SDE2E3FGHIRWXY/LB1 |
Departure
| Time | 2026-05-05 10:42 |
|---|---|
| Airport | Warsaw Chopin Airport (EPWA) |
Arrival
| Time | N/A |
|---|---|
| Airport | Kraków John Paul II International Airport (EPKK) |
| Time | Latitude | Longitude | Altitude | Speed | Heading |
|---|---|---|---|---|---|
| 2026-05-05 10:17 | 52.16400 | 20.98300 | 357 ft | 0 kts | 24° |
| 2026-05-05 10:36 | 52.16389 | 20.98292 | 357 ft | 2 kts | 24° |
| 2026-05-05 10:36 | 52.16374 | 20.98281 | 365 ft | 2 kts | 24° |
| 2026-05-05 10:36 | 52.16359 | 20.98270 | 360 ft | 3 kts | 30° |
| 2026-05-05 10:36 | 52.16345 | 20.98256 | 360 ft | 2 kts | 31° |
| 2026-05-05 10:37 | 52.16331 | 20.98242 | 363 ft | 3 kts | 44° |
| 2026-05-05 10:37 | 52.16322 | 20.98218 | 364 ft | 2 kts | 82° |
| 2026-05-05 10:37 | 52.16322 | 20.98199 | 357 ft | 0 kts | 109° |
| 2026-05-05 10:39 | 52.16315 | 20.98217 | 365 ft | 6 kts | 126° |
| 2026-05-05 10:39 | 52.16277 | 20.98263 | 360 ft | 4 kts | 157° |
| 2026-05-05 10:39 | 52.16264 | 20.98267 | 363 ft | 4 kts | 174° |
| 2026-05-05 10:39 | 52.16247 | 20.98261 | 356 ft | 0 kts | 199° |
| 2026-05-05 10:40 | 52.16252 | 20.98264 | 356 ft | 2 kts | 206° |
| 2026-05-05 10:40 | 52.16248 | 20.98261 | 356 ft | 5 kts | 210° |
| 2026-05-05 10:41 | 52.16228 | 20.98198 | 361 ft | 7 kts | 265° |
| 2026-05-05 10:41 | 52.16226 | 20.98039 | 363 ft | 22 kts | 272° |
| 2026-05-05 10:41 | 52.16266 | 20.97808 | 364 ft | 12 kts | 294° |
| 2026-05-05 10:41 | 52.16302 | 20.97679 | 363 ft | 15 kts | 294° |
| 2026-05-05 10:42 | 52.16727 | 20.96174 | 392 ft | 174 kts | 294° |
| 2026-05-05 10:42 | 52.17293 | 20.94224 | 1178 ft | 203 kts | 295° |